Time;durP1;ratioP1;P1;durP2;ratioP2;P2;SDS_P1;SDS_P2;PMS_P1;PMS_P2;Temp;Humidity;BMP_temperature;BMP_pressure;BME280_temperature;BME280_humidity;BME280_pressure;Samples;Min_cycle;Max_cycle;Signal;HPM_P1;HPM_P2
2023/02/07 00:02:19;;;;;;;;;;;;;;;;;;5090225;28;19925;-82
2023/02/07 00:04:45;;;;;;;;;;;;;;;;;;5090171;28;19916;-82
2023/02/07 00:07:10;;;;;;;;;;;;;;;;;;5074216;28;19916;-83
2023/02/07 00:09:36;;;;;;;;;;;;;;;;;;5089710;28;20379;-82
2023/02/07 00:12:02;;;;;;;;;;;;;;;;;;5056891;28;19939;-83
2023/02/07 00:14:28;;;;;;;;;;;;;;;;;;5092152;28;19924;-87
2023/02/07 00:16:54;;;;;;;;;;;;;;;;;;5074313;28;19925;-86
2023/02/07 00:19:19;;;;;;;;;;;;;;;;;;5056588;28;20053;-83
2023/02/07 00:21:44;;;;;;;;;;;;;;;;;;5074313;28;19921;-86
2023/02/07 00:24:10;;;;;;;;;;;;;;;;;;5074346;28;20057;-82
2023/02/07 00:26:36;;;;;;;;;;;;;;;;;;5056373;28;19917;-82
2023/02/07 00:29:02;;;;;;;;;;;;;;;;;;5074111;28;20394;-82
2023/02/07 00:31:29;;;;;;;;;;;;;;;;;;5056065;28;19916;-83
2023/02/07 00:33:56;;;;;;;;;;;;;;;;;;5056555;28;20074;-84
2023/02/07 00:36:23;;;;;;;;;;;;;;;;;;5089642;28;20406;-86
2023/02/07 00:38:48;;;;;;;;;;;;;;;;;;5073979;28;19916;-83
2023/02/07 00:41:17;;;;;;;;;;;;;;;;;;5073891;28;20276;-83
2023/02/07 00:43:42;;;;;;;;;;;;;;;;;;5089619;28;19962;-83
2023/02/07 00:46:08;;;;;;;;;;;;;;;;;;5074086;28;19916;-83
2023/02/07 00:48:34;;;;;;;;;;;;;;;;;;5089389;28;19946;-82
2023/02/07 00:50:59;;;;;;;;;;;;;;;;;;5073629;28;19920;-82
2023/02/07 00:53:25;;;;;;;;;;;;;;;;;;5073763;28;19923;-87
2023/02/07 00:55:51;;;;;;;;;;;;;;;;;;5055701;28;19994;-82
2023/02/07 00:58:17;;;;;;;;;;;;;;;;;;5073788;28;19928;-84
2023/02/07 01:00:42;;;;;;;;;;;;;;;;;;5089240;28;19916;-84
2023/02/07 01:03:07;;;;;;;;;;;;;;;;;;5073595;28;19917;-85
2023/02/07 01:05:33;;;;;;;;;;;;;;;;;;5073555;28;20359;-88
2023/02/07 01:07:58;;;;;;;;;;;;;;;;;;5073239;28;19916;-85
2023/02/07 01:10:23;;;;;;;;;;;;;;;;;;5089045;28;19916;-85
2023/02/07 01:12:50;;;;;;;;;;;;;;;;;;5088904;28;19916;-86
2023/02/07 01:15:15;;;;;;;;;;;;;;;;;;5055515;28;19978;-89
2023/02/07 01:17:40;;;;;;;;;;;;;;;;;;5089076;28;19955;-85
2023/02/07 01:20:06;;;;;;;;;;;;;;;;;;5072334;28;19917;-84
2023/02/07 01:22:32;;;;;;;;;;;;;;;;;;5055458;28;19916;-87
2023/02/07 01:24:57;;;;;;;;;;;;;;;;;;5073413;28;19962;-86
2023/02/07 01:27:23;;;;;;;;;;;;;;;;;;5073315;28;19928;-90
2023/02/07 01:29:48;;;;;;;;;;;;;;;;;;5073284;28;19924;-87
2023/02/07 01:32:14;;;;;;;;;;;;;;;;;;5073297;28;20014;-86
2023/02/07 01:34:39;;;;;;;;;;;;;;;;;;5073300;28;19923;-85
2023/02/07 01:37:05;;;;;;;;;;;;;;;;;;5055355;28;19916;-89
2023/02/07 01:39:30;;;;;;;;;;;;;;;;;;5089256;28;19917;-83
2023/02/07 01:41:56;;;;;;;;;;;;;;;;;;5073602;28;19924;-83
2023/02/07 01:44:21;;;;;;;;;;;;;;;;;;5089306;28;19916;-87
2023/02/07 01:46:47;;;;;;;;;;;;;;;;;;5077945;28;19916;-83
2023/02/07 01:49:14;;;;;;;;;;;;;;;;;;5073263;28;20435;-82
2023/02/07 01:51:41;;;;;;;;;;;;;;;;;;5088789;28;19917;-86
2023/02/07 01:54:08;;;;;;;;;;;;;;;;;;5086416;28;19938;-84
2023/02/07 01:56:34;;;;;;;;;;;;;;;;;;5090863;28;19920;-82
2023/02/07 01:59:01;;;;;;;;;;;;;;;;;;5093163;28;19939;-82
2023/02/07 02:01:26;;;;;;;;;;;;;;;;;;5073751;28;20015;-84
2023/02/07 02:03:53;;;;;;;;;;;;;;;;;;5073635;28;20407;-82
2023/02/07 02:06:19;;;;;;;;;;;;;;;;;;5073553;28;20363;-82
2023/02/07 02:08:45;;;;;;;;;;;;;;;;;;5073099;28;19920;-83
2023/02/07 02:11:18;;;;;;;;;;;;;;;;;;5055613;28;20692;-83
2023/02/07 02:13:48;;;;;;;;;;;;;;;;;;5075083;28;19923;-84
2023/02/07 02:16:14;;;;;;;;;;;;;;;;;;5073677;28;19917;-87
2023/02/07 02:18:45;;;;;;;;;;;;;;;;;;5073137;28;19917;-88
2023/02/07 02:21:29;;;;;;;;;;;;;;;;;;5072974;28;20003;-86
2023/02/07 02:24:07;;;;;;;;;;;;;;;;;;5072989;28;20003;-87
2023/02/07 02:26:51;;;;;;;;;;;;;;;;;;5072999;28;19921;-88
2023/02/07 02:29:28;;;;;;;;;;;;;;;;;;5073049;28;19939;-86
2023/02/07 02:32:26;;;;;;;;;;;;;;;;;;5090910;28;20372;-88
2023/02/07 02:35:07;;;;;;;;;;;;;;;;;;5042600;28;20421;-89
2023/02/07 02:37:41;;;;;;;;;;;;;;;;;;5076463;28;20023;-87
2023/02/07 02:40:09;;;;;;;;;;;;;;;;;;5076549;28;19924;-86
2023/02/07 02:42:50;;;;;;;;;;;;;;;;;;5076319;28;20003;-85
2023/02/07 02:45:23;;;;;;;;;;;;;;;;;;5076494;28;19920;-86
2023/02/07 02:47:49;;;;;;;;;;;;;;;;;;5076204;28;20424;-85
2023/02/07 02:50:19;;;;;;;;;;;;;;;;;;5076102;28;19928;-84
2023/02/07 02:52:44;;;;;;;;;;;;;;;;;;5091752;28;19924;-88
2023/02/07 02:55:10;;;;;;;;;;;;;;;;;;5076303;28;20050;-87
2023/02/07 02:57:38;;;;;;;;;;;;;;;;;;5076176;28;20065;-84
2023/02/07 03:00:15;;;;;;;;;;;;;;;;;;5076147;28;19954;-83
2023/02/07 03:02:53;;;;;;;;;;;;;;;;;;5076007;28;19916;-83
2023/02/07 03:05:21;;;;;;;;;;;;;;;;;;5058295;28;20261;-84
2023/02/07 03:07:56;;;;;;;;;;;;;;;;;;5075865;28;19930;-82
2023/02/07 03:10:28;;;;;;;;;;;;;;;;;;5075998;28;20007;-83
2023/02/07 03:12:59;;;;;;;;;;;;;;;;;;5091308;28;19920;-82
2023/02/07 03:15:39;;;;;;;;;;;;;;;;;;5091403;28;19962;-83
2023/02/07 03:18:13;;;;;;;;;;;;;;;;;;5075704;28;19923;-84
2023/02/07 03:20:42;;;;;;;;;;;;;;;;;;5091263;28;20439;-84
2023/02/07 03:23:08;;;;;;;;;;;;;;;;;;5057841;28;19917;-83
2023/02/07 03:25:34;;;;;;;;;;;;;;;;;;5057660;28;19920;-82
2023/02/07 03:28:00;;;;;;;;;;;;;;;;;;5075557;28;19963;-89
2023/02/07 03:30:29;;;;;;;;;;;;;;;;;;5091168;28;19916;-90
2023/02/07 03:32:56;;;;;;;;;;;;;;;;;;5075454;28;19916;-87
2023/02/07 03:35:24;;;;;;;;;;;;;;;;;;5091000;28;19916;-88
2023/02/07 03:37:55;;;;;;;;;;;;;;;;;;5075427;28;20011;-87
2023/02/07 03:40:22;;;;;;;;;;;;;;;;;;5075555;28;20330;-87
2023/02/07 03:42:47;;;;;;;;;;;;;;;;;;5074140;28;19921;-89
2023/02/07 03:45:14;;;;;;;;;;;;;;;;;;5075136;28;20296;-84
2023/02/07 03:47:39;;;;;;;;;;;;;;;;;;5074964;28;19979;-88
2023/02/07 03:50:05;;;;;;;;;;;;;;;;;;5074705;28;20384;-87
2023/02/07 03:52:30;;;;;;;;;;;;;;;;;;5074849;28;20014;-86
2023/02/07 03:54:56;;;;;;;;;;;;;;;;;;5074722;28;20011;-85
2023/02/07 03:57:21;;;;;;;;;;;;;;;;;;5056803;28;19970;-83
2023/02/07 03:59:47;;;;;;;;;;;;;;;;;;5074620;28;19923;-85
2023/02/07 04:02:12;;;;;;;;;;;;;;;;;;5074664;28;19916;-86
2023/02/07 04:04:38;;;;;;;;;;;;;;;;;;5074534;28;19916;-89
2023/02/07 04:07:03;;;;;;;;;;;;;;;;;;5090394;28;19959;-84
2023/02/07 04:09:28;;;;;;;;;;;;;;;;;;5074395;28;19920;-86
2023/02/07 04:11:54;;;;;;;;;;;;;;;;;;5074728;28;19921;-87
2023/02/07 04:14:20;;;;;;;;;;;;;;;;;;5074522;28;19949;-86
2023/02/07 04:16:46;;;;;;;;;;;;;;;;;;5074617;28;19970;-83
2023/02/07 04:19:11;;;;;;;;;;;;;;;;;;5074265;28;19951;-85
2023/02/07 04:21:37;;;;;;;;;;;;;;;;;;5074578;28;19916;-89
2023/02/07 04:24:02;;;;;;;;;;;;;;;;;;5056347;28;20015;-87
2023/02/07 04:26:28;;;;;;;;;;;;;;;;;;5074331;28;19952;-87
2023/02/07 04:28:53;;;;;;;;;;;;;;;;;;5073990;28;20372;-84
2023/02/07 04:31:19;;;;;;;;;;;;;;;;;;5089706;28;19924;-86
2023/02/07 04:33:44;;;;;;;;;;;;;;;;;;5089640;28;20261;-88
2023/02/07 04:36:09;;;;;;;;;;;;;;;;;;5089849;28;19982;-85
2023/02/07 04:38:35;;;;;;;;;;;;;;;;;;5073979;28;19922;-83
2023/02/07 04:41:04;;;;;;;;;;;;;;;;;;5074045;28;19928;-86
2023/02/07 04:43:30;;;;;;;;;;;;;;;;;;5073953;28;19962;-87
2023/02/07 04:45:56;;;;;;;;;;;;;;;;;;5073816;28;20382;-86
2023/02/07 04:48:21;;;;;;;;;;;;;;;;;;5073734;28;20002;-83
2023/02/07 04:50:47;;;;;;;;;;;;;;;;;;5073614;28;19924;-85
2023/02/07 04:53:13;;;;;;;;;;;;;;;;;;5055905;28;19920;-85
2023/02/07 04:55:38;;;;;;;;;;;;;;;;;;5055588;28;19943;-84
2023/02/07 04:58:04;;;;;;;;;;;;;;;;;;5056044;28;19924;-84
2023/02/07 05:00:29;;;;;;;;;;;;;;;;;;5073813;28;19923;-85
2023/02/07 05:02:55;;;;;;;;;;;;;;;;;;5055784;28;19916;-90
2023/02/07 05:05:20;;;;;;;;;;;;;;;;;;5073646;28;20360;-89
2023/02/07 05:07:45;;;;;;;;;;;;;;;;;;5073777;28;20260;-88
2023/02/07 05:10:11;;;;;;;;;;;;;;;;;;5055562;28;19916;-87
2023/02/07 05:12:36;;;;;;;;;;;;;;;;;;5073685;28;20280;-84
2023/02/07 05:15:02;;;;;;;;;;;;;;;;;;5074570;28;19952;-86
2023/02/07 05:17:29;;;;;;;;;;;;;;;;;;5073652;28;20387;-86
2023/02/07 05:19:54;;;;;;;;;;;;;;;;;;5073495;28;19928;-87
2023/02/07 05:22:20;;;;;;;;;;;;;;;;;;5073385;28;19917;-89
2023/02/07 05:24:45;;;;;;;;;;;;;;;;;;5073542;28;19921;-85
2023/02/07 05:27:11;;;;;;;;;;;;;;;;;;5073361;28;19944;-84
2023/02/07 05:29:36;;;;;;;;;;;;;;;;;;5073295;28;19917;-87
2023/02/07 05:34:45;;;;;;;;;;;;;;;;;;5073271;28;20017;-89
2023/02/07 05:37:11;;;;;;;;;;;;;;;;;;5088697;28;20356;-87
2023/02/07 05:39:36;;;;;;;;;;;;;;;;;;5073216;28;19917;-89
2023/02/07 05:42:02;;;;;;;;;;;;;;;;;;5088727;28;19960;-88
2023/02/07 05:44:27;;;;;;;;;;;;;;;;;;5073222;28;19923;-86
2023/02/07 05:46:53;;;;;;;;;;;;;;;;;;5073384;28;19928;-85
2023/02/07 05:49:18;;;;;;;;;;;;;;;;;;5072997;28;19920;-87
2023/02/07 05:51:43;;;;;;;;;;;;;;;;;;5088900;28;19927;-88
2023/02/07 05:54:09;;;;;;;;;;;;;;;;;;5073420;28;19970;-82
2023/02/07 05:56:34;;;;;;;;;;;;;;;;;;5073172;28;19916;-83
2023/02/07 05:59:00;;;;;;;;;;;;;;;;;;5073272;28;20028;-82
2023/02/07 06:01:25;;;;;;;;;;;;;;;;;;5073027;28;19917;-85
2023/02/07 06:03:50;;;;;;;;;;;;;;;;;;5055125;28;19923;-83
2023/02/07 06:06:16;;;;;;;;;;;;;;;;;;5074455;28;20283;-83
2023/02/07 06:08:41;;;;;;;;;;;;;;;;;;5076822;28;20520;-83
2023/02/07 06:11:07;;;;;;;;;;;;;;;;;;5076718;28;19946;-82
2023/02/07 06:13:32;;;;;;;;;;;;;;;;;;5076839;28;19966;-82
2023/02/07 06:15:57;;;;;;;;;;;;;;;;;;5076808;28;20372;-84
2023/02/07 06:18:23;;;;;;;;;;;;;;;;;;5092523;28;19928;-90
2023/02/07 06:20:50;;;;;;;;;;;;;;;;;;5077120;28;19979;-84
2023/02/07 06:23:15;;;;;;;;;;;;;;;;;;5076895;28;19923;-88
2023/02/07 06:25:41;;;;;;;;;;;;;;;;;;5076790;28;19917;-88
2023/02/07 06:28:06;;;;;;;;;;;;;;;;;;5077051;28;20359;-89
2023/02/07 06:30:31;;;;;;;;;;;;;;;;;;5073203;28;19950;-85
2023/02/07 06:32:57;;;;;;;;;;;;;;;;;;5098025;28;19952;-86
2023/02/07 06:35:22;;;;;;;;;;;;;;;;;;5100783;28;19920;-87
2023/02/07 06:37:47;;;;;;;;;;;;;;;;;;5112116;28;20311;-89
2023/02/07 06:40:13;;;;;;;;;;;;;;;;;;5068839;28;19924;-87
2023/02/07 06:42:38;;;;;;;;;;;;;;;;;;5058598;28;20286;-85
2023/02/07 06:45:04;;;;;;;;;;;;;;;;;;5076832;28;19936;-86
2023/02/07 06:47:29;;;;;;;;;;;;;;;;;;5076881;28;19920;-86
2023/02/07 06:49:55;;;;;;;;;;;;;;;;;;5076133;28;19924;-87
2023/02/07 06:52:20;;;;;;;;;;;;;;;;;;5076475;28;20346;-84
2023/02/07 06:54:45;;;;;;;;;;;;;;;;;;5076451;28;19952;-86
2023/02/07 06:57:11;;;;;;;;;;;;;;;;;;5076346;28;19944;-88
2023/02/07 06:59:36;;;;;;;;;;;;;;;;;;5091892;28;20444;-85
2023/02/07 07:02:02;;;;;;;;;;;;;;;;;;5076197;28;19964;-88
2023/02/07 07:04:28;;;;;;;;;;;;;;;;;;5076099;28;19916;-86
2023/02/07 07:06:53;;;;;;;;;;;;;;;;;;5058294;28;19969;-87
2023/02/07 07:09:18;;;;;;;;;;;;;;;;;;5076083;28;19963;-85
2023/02/07 07:11:44;;;;;;;;;;;;;;;;;;5058124;28;19921;-86
2023/02/07 07:14:10;;;;;;;;;;;;;;;;;;5076025;28;20004;-87
2023/02/07 07:16:35;;;;;;;;;;;;;;;;;;5075735;28;19961;-85
2023/02/07 07:19:01;;;;;;;;;;;;;;;;;;5075811;28;19920;-88
2023/02/07 07:21:27;;;;;;;;;;;;;;;;;;5075765;28;19920;-87
2023/02/07 07:23:53;;;;;;;;;;;;;;;;;;5057691;28;19974;-87
2023/02/07 07:26:18;;;;;;;;;;;;;;;;;;5091301;28;19952;-85
2023/02/07 07:28:43;;;;;;;;;;;;;;;;;;5075511;28;20397;-86
2023/02/07 07:31:09;;;;;;;;;;;;;;;;;;5075475;28;19944;-87
2023/02/07 07:33:35;;;;;;;;;;;;;;;;;;5057277;28;19963;-88
2023/02/07 07:36:00;;;;;;;;;;;;;;;;;;5057224;28;19920;-86
2023/02/07 07:38:26;;;;;;;;;;;;;;;;;;5057210;28;20257;-90
2023/02/07 07:40:52;;;;;;;;;;;;;;;;;;5090840;28;19916;-86
2023/02/07 07:43:17;;;;;;;;;;;;;;;;;;5075105;28;19916;-88
2023/02/07 07:45:42;;;;;;;;;;;;;;;;;;5075275;28;20019;-83
2023/02/07 07:48:08;;;;;;;;;;;;;;;;;;5076091;28;19966;-86
2023/02/07 07:50:33;;;;;;;;;;;;;;;;;;5074922;28;19929;-84
2023/02/07 07:52:59;;;;;;;;;;;;;;;;;;5075161;28;19962;-84
2023/02/07 07:55:24;;;;;;;;;;;;;;;;;;5056962;28;19974;-87
2023/02/07 07:57:50;;;;;;;;;;;;;;;;;;5090426;28;19965;-83
2023/02/07 08:00:15;;;;;;;;;;;;;;;;;;5090263;28;19916;-84
2023/02/07 08:02:41;;;;;;;;;;;;;;;;;;5074736;28;19917;-87
2023/02/07 08:05:06;;;;;;;;;;;;;;;;;;5090333;28;19963;-88
2023/02/07 08:07:32;;;;;;;;;;;;;;;;;;5056739;28;19924;-85
2023/02/07 08:09:58;;;;;;;;;;;;;;;;;;5056569;28;20019;-84
2023/02/07 08:12:23;;;;;;;;;;;;;;;;;;5056478;28;19920;-85
2023/02/07 08:14:48;;;;;;;;;;;;;;;;;;5074509;28;19913;-86
2023/02/07 08:17:14;;;;;;;;;;;;;;;;;;5074556;28;20283;-85
2023/02/07 08:19:39;;;;;;;;;;;;;;;;;;5090488;28;20443;-83
2023/02/07 08:22:05;;;;;;;;;;;;;;;;;;5089662;28;20011;-85
2023/02/07 08:24:30;;;;;;;;;;;;;;;;;;5089869;28;20019;-85
2023/02/07 08:26:55;;;;;;;;;;;;;;;;;;5056306;28;19923;-85
2023/02/07 08:29:21;;;;;;;;;;;;;;;;;;5073660;28;19920;-85
2023/02/07 08:31:47;;;;;;;;;;;;;;;;;;5074492;28;19920;-82
2023/02/07 08:34:13;;;;;;;;;;;;;;;;;;5074095;28;20343;-83
2023/02/07 08:36:38;;;;;;;;;;;;;;;;;;5089816;28;19955;-83
2023/02/07 08:39:04;;;;;;;;;;;;;;;;;;5074211;28;19999;-84
2023/02/07 08:41:29;;;;;;;;;;;;;;;;;;5056157;28;20291;-83
2023/02/07 08:43:55;;;;;;;;;;;;;;;;;;5074030;28;20338;-83
2023/02/07 08:46:20;;;;;;;;;;;;;;;;;;5089507;28;19924;-83
2023/02/07 08:48:45;;;;;;;;;;;;;;;;;;5073831;28;19916;-83
2023/02/07 08:51:11;;;;;;;;;;;;;;;;;;5073494;28;20011;-83
2023/02/07 08:53:37;;;;;;;;;;;;;;;;;;5073922;28;19923;-83
2023/02/07 08:56:02;;;;;;;;;;;;;;;;;;5073624;28;20375;-84
2023/02/07 08:58:27;;;;;;;;;;;;;;;;;;5089199;28;20393;-83
2023/02/07 09:00:53;;;;;;;;;;;;;;;;;;5073549;28;20014;-83
2023/02/07 09:03:19;;;;;;;;;;;;;;;;;;5073545;28;19920;-83
2023/02/07 09:05:44;;;;;;;;;;;;;;;;;;5055525;28;20326;-83
2023/02/07 09:08:09;;;;;;;;;;;;;;;;;;5073521;28;20014;-82
2023/02/07 09:10:35;;;;;;;;;;;;;;;;;;5073386;28;19917;-83
2023/02/07 09:13:01;;;;;;;;;;;;;;;;;;5073452;28;20002;-84
2023/02/07 09:15:26;;;;;;;;;;;;;;;;;;5073342;28;19938;-84
2023/02/07 09:17:52;;;;;;;;;;;;;;;;;;5055447;28;19952;-82
2023/02/07 09:20:17;;;;;;;;;;;;;;;;;;5055413;28;19916;-82
2023/02/07 09:25:26;;;;;;;;;;;;;;;;;;5073576;28;20410;-85
2023/02/07 09:27:52;;;;;;;;;;;;;;;;;;5073380;28;19920;-83
2023/02/07 09:30:17;;;;;;;;;;;;;;;;;;5074160;28;19916;-83
2023/02/07 09:32:43;;;;;;;;;;;;;;;;;;5055205;28;19917;-82
2023/02/07 09:35:08;;;;;;;;;;;;;;;;;;5088657;28;20379;-83
2023/02/07 09:37:34;;;;;;;;;;;;;;;;;;5073185;28;19921;-82
2023/02/07 09:40:00;;;;;;;;;;;;;;;;;;5055203;28;19917;-83
2023/02/07 09:42:48;;;;;;;;;;;;;;;;;;5058546;28;20351;-83
2023/02/07 09:45:19;;;;;;;;;;;;;;;;;;5081867;28;20007;-82
2023/02/07 09:47:45;;;;;;;;;;;;;;;;;;5077128;28;20295;-82
2023/02/07 09:50:12;;;;;;;;;;;;;;;;;;5076900;28;19927;-83
2023/02/07 09:52:40;;;;;;;;;;;;;;;;;;5076959;28;20394;-83
2023/02/07 09:55:10;;;;;;;;;;;;;;;;;;5092748;28;20318;-83
2023/02/07 09:57:43;;;;;;;;;;;;;;;;;;5076946;28;20429;-83
2023/02/07 10:00:36;;;;;;;;;;;;;;;;;;5077002;28;19917;-83
2023/02/07 10:03:08;;;;;;;;;;;;;;;;;;5056576;28;20298;-83
2023/02/07 10:05:37;;;;;;;;;;;;;;;;;;5092423;28;19920;-85
2023/02/07 10:08:02;;;;;;;;;;;;;;;;;;5092658;28;19923;-84
2023/02/07 10:10:34;;;;;;;;;;;;;;;;;;5092327;28;20265;-84
2023/02/07 10:13:05;;;;;;;;;;;;;;;;;;5076643;28;19917;-82
2023/02/07 10:15:55;;;;;;;;;;;;;;;;;;5076701;28;19959;-83
2023/02/07 10:18:36;;;;;;;;;;;;;;;;;;5076656;28;20010;-83
2023/02/07 10:21:14;;;;;;;;;;;;;;;;;;5076548;28;20394;-83
2023/02/07 10:23:57;;;;;;;;;;;;;;;;;;5076532;28;19928;-83
2023/02/07 10:26:41;;;;;;;;;;;;;;;;;;5081189;28;19928;-82
2023/02/07 10:29:10;;;;;;;;;;;;;;;;;;5091937;28;19917;-83
2023/02/07 10:31:38;;;;;;;;;;;;;;;;;;5076332;28;19927;-82
2023/02/07 10:34:11;;;;;;;;;;;;;;;;;;5081394;28;20402;-87
2023/02/07 10:36:39;;;;;;;;;;;;;;;;;;5077706;28;20010;-81
2023/02/07 10:39:23;;;;;;;;;;;;;;;;;;5095195;28;19923;-84
2023/02/07 10:41:50;;;;;;;;;;;;;;;;;;5077359;28;19974;-82
2023/02/07 10:44:17;;;;;;;;;;;;;;;;;;5075472;28;19920;-83
2023/02/07 10:46:44;;;;;;;;;;;;;;;;;;5077085;28;19916;-82
2023/02/07 10:49:17;;;;;;;;;;;;;;;;;;5074061;28;19924;-82
2023/02/07 10:51:44;;;;;;;;;;;;;;;;;;5089538;28;19916;-81
2023/02/07 10:54:15;;;;;;;;;;;;;;;;;;5106222;28;19923;-81
2023/02/07 10:56:42;;;;;;;;;;;;;;;;;;5102523;28;19986;-81
2023/02/07 10:59:27;;;;;;;;;;;;;;;;;;5097231;28;19923;-84
2023/02/07 11:01:53;;;;;;;;;;;;;;;;;;5078603;28;20006;-84
2023/02/07 11:04:23;;;;;;;;;;;;;;;;;;5078540;28;19956;-86
2023/02/07 11:06:58;;;;;;;;;;;;;;;;;;5078472;28;19917;-86
2023/02/07 11:09:24;;;;;;;;;;;;;;;;;;5091733;28;19977;-84
2023/02/07 11:11:50;;;;;;;;;;;;;;;;;;5074430;28;19920;-82
2023/02/07 11:14:17;;;;;;;;;;;;;;;;;;5084126;28;19923;-84
2023/02/07 11:16:43;;;;;;;;;;;;;;;;;;5072392;28;19928;-84
2023/02/07 11:19:13;;;;;;;;;;;;;;;;;;5093306;28;19971;-83
2023/02/07 11:21:40;;;;;;;;;;;;;;;;;;5090616;28;20016;-84
2023/02/07 11:24:07;;;;;;;;;;;;;;;;;;5091018;28;19927;-82
2023/02/07 11:26:33;;;;;;;;;;;;;;;;;;5077387;28;19916;-82
2023/02/07 11:29:05;;;;;;;;;;;;;;;;;;5068485;28;19927;-84
2023/02/07 11:31:33;;;;;;;;;;;;;;;;;;5057338;28;19917;-84
2023/02/07 11:34:09;;;;;;;;;;;;;;;;;;5083044;28;20438;-83
2023/02/07 11:36:35;;;;;;;;;;;;;;;;;;5095568;28;19920;-86
2023/02/07 11:39:00;;;;;;;;;;;;;;;;;;5077279;28;19980;-82
2023/02/07 11:41:27;;;;;;;;;;;;;;;;;;5095344;28;20412;-85
2023/02/07 11:43:59;;;;;;;;;;;;;;;;;;5077217;28;19916;-83
2023/02/07 11:46:35;;;;;;;;;;;;;;;;;;5095191;28;19920;-85
2023/02/07 11:49:02;;;;;;;;;;;;;;;;;;5088335;28;19946;-86
2023/02/07 11:51:29;;;;;;;;;;;;;;;;;;5086639;28;19932;-86
2023/02/07 11:54:03;;;;;;;;;;;;;;;;;;5093766;28;19920;-83
2023/02/07 11:56:28;;;;;;;;;;;;;;;;;;5095015;28;19916;-85
2023/02/07 11:58:54;;;;;;;;;;;;;;;;;;5094855;28;19916;-82
2023/02/07 12:01:25;;;;;;;;;;;;;;;;;;5070367;28;19920;-82
2023/02/07 12:04:05;;;;;;;;;;;;;;;;;;5084998;28;19924;-82
2023/02/07 12:06:42;;;;;;;;;;;;;;;;;;5093622;28;19916;-84
2023/02/07 12:09:31;;;;;;;;;;;;;;;;;;5094105;28;19916;-85
2023/02/07 12:11:59;;;;;;;;;;;;;;;;;;5086513;28;19943;-83
2023/02/07 12:14:32;;;;;;;;;;;;;;;;;;5094617;28;19926;-84
2023/02/07 12:16:59;;;;;;;;;;;;;;;;;;5078409;28;19928;-85
2023/02/07 12:19:34;;;;;;;;;;;;;;;;;;5073711;28;19917;-82
2023/02/07 12:22:04;;;;;;;;;;;;;;;;;;5084192;28;19960;-82
2023/02/07 12:24:49;;;;;;;;;;;;;;;;;;5074666;28;19920;-82
2023/02/07 12:27:16;;;;;;;;;;;;;;;;;;5074480;28;20003;-82
2023/02/07 12:29:55;;;;;;;;;;;;;;;;;;5067816;28;20390;-82
2023/02/07 12:32:26;;;;;;;;;;;;;;;;;;5073973;28;20368;-83
2023/02/07 12:34:54;;;;;;;;;;;;;;;;;;5075917;28;19923;-83
2023/02/07 12:37:32;;;;;;;;;;;;;;;;;;5076064;28;19920;-82
2023/02/07 12:40:16;;;;;;;;;;;;;;;;;;5094195;28;20291;-82
2023/02/07 12:42:44;;;;;;;;;;;;;;;;;;5087316;28;19920;-82
2023/02/07 12:45:14;;;;;;;;;;;;;;;;;;5091801;28;19920;-83
2023/02/07 12:47:43;;;;;;;;;;;;;;;;;;5085471;28;19931;-83
2023/02/07 12:50:20;;;;;;;;;;;;;;;;;;5091899;28;20219;-82
2023/02/07 12:53:04;;;;;;;;;;;;;;;;;;5091317;28;19921;-85
2023/02/07 12:55:29;;;;;;;;;;;;;;;;;;5065100;28;19935;-82
2023/02/07 12:58:30;;;;;;;;;;;;;;;;;;5088984;28;19920;-83
2023/02/07 13:00:59;;;;;;;;;;;;;;;;;;5041203;28;20013;-82
2023/02/07 13:03:35;;;;;;;;;;;;;;;;;;5050194;28;19928;-82
2023/02/07 13:06:01;;;;;;;;;;;;;;;;;;5032721;28;19925;-81
2023/02/07 13:08:58;;;;;;;;;;;;;;;;;;5051124;28;19921;-83
2023/02/07 13:11:36;;;;;;;;;;;;;;;;;;5018689;28;19920;-82
2023/02/07 13:14:04;;;;;;;;;;;;;;;;;;5052738;28;19920;-82
2023/02/07 13:16:40;;;;;;;;;;;;;;;;;;5050938;28;19956;-82
2023/02/07 13:19:19;;;;;;;;;;;;;;;;;;5049367;28;19921;-80
2023/02/07 13:21:47;;;;;;;;;;;;;;;;;;5051200;28;19924;-81
2023/02/07 13:24:14;;;;;;;;;;;;;;;;;;5051150;28;19917;-82
2023/02/07 13:26:41;;;;;;;;;;;;;;;;;;5051022;28;20376;-81
2023/02/07 13:29:12;;;;;;;;;;;;;;;;;;5052043;28;20023;-82
2023/02/07 13:31:38;;;;;;;;;;;;;;;;;;5052174;28;19960;-81
2023/02/07 13:34:03;;;;;;;;;;;;;;;;;;5057952;28;19951;-80
2023/02/07 13:36:42;;;;;;;;;;;;;;;;;;5093536;28;19916;-81
2023/02/07 13:39:10;;;;;;;;;;;;;;;;;;5093758;28;19988;-81
2023/02/07 13:41:53;;;;;;;;;;;;;;;;;;5075257;28;20270;-80
2023/02/07 13:44:24;;;;;;;;;;;;;;;;;;5093448;28;19916;-80
2023/02/07 13:47:00;;;;;;;;;;;;;;;;;;5094410;28;19916;-79
2023/02/07 13:49:35;;;;;;;;;;;;;;;;;;5093010;28;20382;-79
2023/02/07 13:52:00;;;;;;;;;;;;;;;;;;5075849;28;20325;-81
2023/02/07 13:54:29;;;;;;;;;;;;;;;;;;5095166;28;19923;-81
2023/02/07 13:59:41;;;;;;;;;;;;;;;;;;5093522;28;20075;-82
2023/02/07 14:02:15;;;;;;;;;;;;;;;;;;5093210;28;19920;-80
2023/02/07 14:04:45;;;;;;;;;;;;;;;;;;5092969;28;19970;-80
2023/02/07 14:07:17;;;;;;;;;;;;;;;;;;5093186;28;19970;-79
2023/02/07 14:09:46;;;;;;;;;;;;;;;;;;5093026;28;19923;-79
2023/02/07 14:12:18;;;;;;;;;;;;;;;;;;5093000;28;19916;-79
2023/02/07 14:14:43;;;;;;;;;;;;;;;;;;5092987;28;20287;-80
2023/02/07 14:17:27;;;;;;;;;;;;;;;;;;5093007;28;19923;-80
2023/02/07 14:19:53;;;;;;;;;;;;;;;;;;5092837;28;19966;-82
2023/02/07 14:22:20;;;;;;;;;;;;;;;;;;5092919;28;20015;-80
2023/02/07 14:24:50;;;;;;;;;;;;;;;;;;5092949;28;19922;-82
2023/02/07 14:27:26;;;;;;;;;;;;;;;;;;5094255;28;19920;-81
2023/02/07 14:30:08;;;;;;;;;;;;;;;;;;5096594;28;19916;-80
2023/02/07 14:32:52;;;;;;;;;;;;;;;;;;5078453;28;19927;-79
2023/02/07 14:35:18;;;;;;;;;;;;;;;;;;5096646;28;20380;-80
2023/02/07 14:37:47;;;;;;;;;;;;;;;;;;5096616;28;19997;-80
2023/02/07 14:40:30;;;;;;;;;;;;;;;;;;5096545;28;19916;-81
2023/02/07 14:43:07;;;;;;;;;;;;;;;;;;5096620;28;20385;-80
2023/02/07 14:45:34;;;;;;;;;;;;;;;;;;5078171;28;19923;-79
2023/02/07 14:47:59;;;;;;;;;;;;;;;;;;5078136;28;19923;-79
2023/02/07 14:50:29;;;;;;;;;;;;;;;;;;5077965;28;19924;-80
2023/02/07 14:52:56;;;;;;;;;;;;;;;;;;5096407;28;19927;-79
2023/02/07 14:55:40;;;;;;;;;;;;;;;;;;5096270;28;20029;-81
2023/02/07 14:58:08;;;;;;;;;;;;;;;;;;5096157;28;19917;-81
2023/02/07 15:00:37;;;;;;;;;;;;;;;;;;5096381;28;19959;-81
2023/02/07 15:03:10;;;;;;;;;;;;;;;;;;5096447;28;19920;-80
2023/02/07 15:05:48;;;;;;;;;;;;;;;;;;5078758;28;19939;-80
2023/02/07 15:08:23;;;;;;;;;;;;;;;;;;5098068;28;19943;-80
2023/02/07 15:10:55;;;;;;;;;;;;;;;;;;5098264;28;19917;-80
2023/02/07 15:13:31;;;;;;;;;;;;;;;;;;5090115;28;19924;-80
2023/02/07 15:15:57;;;;;;;;;;;;;;;;;;5104883;28;19912;-80
2023/02/07 15:18:24;;;;;;;;;;;;;;;;;;5110055;28;20291;-82
2023/02/07 15:20:50;;;;;;;;;;;;;;;;;;5108815;28;19920;-81
2023/02/07 15:23:16;;;;;;;;;;;;;;;;;;5083069;28;19963;-83
2023/02/07 15:25:43;;;;;;;;;;;;;;;;;;5078362;28;19912;-87
2023/02/07 15:28:19;;;;;;;;;;;;;;;;;;5096531;28;19974;-82
2023/02/07 15:30:55;;;;;;;;;;;;;;;;;;5077925;28;19981;-88
2023/02/07 15:33:25;;;;;;;;;;;;;;;;;;5077856;28;20371;-86
2023/02/07 15:35:50;;;;;;;;;;;;;;;;;;5095947;28;19972;-87
2023/02/07 15:38:19;;;;;;;;;;;;;;;;;;5094673;28;20380;-87
2023/02/07 15:40:44;;;;;;;;;;;;;;;;;;5077389;28;20303;-86
2023/02/07 15:43:22;;;;;;;;;;;;;;;;;;5095831;28;19920;-87
2023/02/07 15:45:56;;;;;;;;;;;;;;;;;;5095651;28;19923;-83
2023/02/07 15:48:22;;;;;;;;;;;;;;;;;;5095737;28;19916;-87
2023/02/07 15:50:51;;;;;;;;;;;;;;;;;;5095199;28;19927;-84
2023/02/07 15:53:19;;;;;;;;;;;;;;;;;;5095363;28;20387;-84
2023/02/07 15:55:46;;;;;;;;;;;;;;;;;;5077303;28;20358;-86
2023/02/07 15:58:27;;;;;;;;;;;;;;;;;;5095167;28;19926;-85
2023/02/07 16:01:00;;;;;;;;;;;;;;;;;;5095284;28;19916;-82
2023/02/07 16:03:29;;;;;;;;;;;;;;;;;;5095269;28;19923;-83
2023/02/07 16:06:00;;;;;;;;;;;;;;;;;;5095090;28;20426;-82
2023/02/07 16:08:44;;;;;;;;;;;;;;;;;;5095187;28;19916;-81
2023/02/07 16:11:13;;;;;;;;;;;;;;;;;;5095039;28;19923;-86
2023/02/07 16:13:43;;;;;;;;;;;;;;;;;;5095022;28;20021;-82
2023/02/07 16:16:16;;;;;;;;;;;;;;;;;;5095005;28;20082;-84
2023/02/07 16:18:45;;;;;;;;;;;;;;;;;;5094769;28;20010;-80
2023/02/07 16:21:16;;;;;;;;;;;;;;;;;;5094598;28;19916;-80
2023/02/07 16:23:42;;;;;;;;;;;;;;;;;;5094611;28;20425;-84
2023/02/07 16:26:07;;;;;;;;;;;;;;;;;;5094496;28;19916;-80
2023/02/07 16:28:33;;;;;;;;;;;;;;;;;;5076325;28;19928;-82
2023/02/07 16:30:58;;;;;;;;;;;;;;;;;;5094502;28;19920;-80
2023/02/07 16:33:24;;;;;;;;;;;;;;;;;;5094528;28;19978;-84
2023/02/07 16:35:50;;;;;;;;;;;;;;;;;;5094480;28;19919;-81
2023/02/07 16:38:15;;;;;;;;;;;;;;;;;;5094304;28;19916;-89
2023/02/07 16:40:41;;;;;;;;;;;;;;;;;;5094391;28;19952;-87
2023/02/07 16:43:06;;;;;;;;;;;;;;;;;;5094303;28;19913;-86
2023/02/07 16:45:32;;;;;;;;;;;;;;;;;;5094239;28;20351;-83
2023/02/07 16:47:58;;;;;;;;;;;;;;;;;;5094251;28;20295;-88
2023/02/07 16:50:27;;;;;;;;;;;;;;;;;;5093393;28;19924;-84
2023/02/07 16:52:55;;;;;;;;;;;;;;;;;;5094068;28;19941;-90
2023/02/07 16:55:22;;;;;;;;;;;;;;;;;;5094313;28;20414;-87
2023/02/07 16:57:48;;;;;;;;;;;;;;;;;;5094115;28;19920;-87
2023/02/07 17:00:16;;;;;;;;;;;;;;;;;;5094054;28;20653;-86
2023/02/07 17:02:42;;;;;;;;;;;;;;;;;;5075698;28;19916;-85
2023/02/07 17:05:08;;;;;;;;;;;;;;;;;;5075760;28;20438;-83